createdAt,value
2022-10-05T00:03:03.489Z,99.9
2022-10-05T00:08:05.326Z,99.9
2022-10-05T00:13:07.288Z,99.9
2022-10-05T00:18:09.591Z,99.9
2022-10-05T00:23:11.571Z,99.9
2022-10-05T00:28:13.899Z,99.9
2022-10-05T00:33:16.377Z,99.9
2022-10-05T00:38:18.432Z,99.9
2022-10-05T00:43:20.443Z,99.9
2022-10-05T00:48:22.524Z,99.9
2022-10-05T00:53:24.585Z,99.9
2022-10-05T00:58:26.467Z,99.9
2022-10-05T01:03:28.446Z,99.9
2022-10-05T01:08:30.423Z,99.9
2022-10-05T01:13:32.479Z,99.9
2022-10-05T01:18:34.465Z,99.9
2022-10-05T01:23:36.608Z,99.9
2022-10-05T01:28:38.891Z,99.9
2022-10-05T01:33:40.859Z,99.9
2022-10-05T01:38:42.830Z,99.9
2022-10-05T01:43:44.962Z,99.9
2022-10-05T01:48:46.979Z,99.9
2022-10-05T01:53:48.984Z,99.9
2022-10-05T01:58:51.470Z,99.9
2022-10-05T02:03:53.473Z,99.9
2022-10-05T02:08:55.500Z,99.9
2022-10-05T02:13:57.603Z,99.9
2022-10-05T02:18:59.620Z,99.9
2022-10-05T02:24:01.510Z,99.9
2022-10-05T02:29:03.439Z,99.9
2022-10-05T02:34:05.497Z,99.9
2022-10-05T02:39:07.438Z,99.9
2022-10-05T02:44:09.331Z,99.9
2022-10-05T02:49:11.328Z,99.9
2022-10-05T02:54:13.392Z,99.9
2022-10-05T02:59:18.131Z,99.9
2022-10-05T03:04:20.285Z,99.9
2022-10-05T03:09:22.277Z,99.9
2022-10-05T03:14:24.364Z,99.9
2022-10-05T03:19:26.469Z,99.9
2022-10-05T03:24:28.397Z,99.9
2022-10-05T03:29:30.315Z,99.9
2022-10-05T03:34:32.368Z,99.9
2022-10-05T03:39:34.485Z,99.9
2022-10-05T03:44:36.468Z,99.9
2022-10-05T03:49:38.408Z,99.9
2022-10-05T03:54:40.669Z,99.9
2022-10-05T03:59:42.897Z,99.9
2022-10-05T04:04:44.954Z,99.9
2022-10-05T04:09:46.873Z,99.9
2022-10-05T04:14:48.901Z,99.9
2022-10-05T04:19:51.683Z,99.9
2022-10-05T04:24:53.679Z,99.9
2022-10-05T04:29:57.052Z,99.9
2022-10-05T04:34:59.061Z,99.9
2022-10-05T04:40:01.180Z,99.9
2022-10-05T04:45:03.399Z,99.9
2022-10-05T04:50:05.686Z,99.9
2022-10-05T04:55:07.760Z,99.9
2022-10-05T05:00:10.205Z,99.9
2022-10-05T05:05:12.724Z,99.9
2022-10-05T05:10:14.761Z,99.9
2022-10-05T05:15:16.657Z,99.9
2022-10-05T05:20:18.574Z,99.9
2022-10-05T05:25:20.854Z,99.9
2022-10-05T05:30:22.773Z,99.9
2022-10-05T05:35:24.719Z,99.9
2022-10-05T05:40:26.663Z,99.9
2022-10-05T05:45:28.614Z,99.9
2022-10-05T05:50:30.544Z,99.9
2022-10-05T05:55:33.257Z,99.9
2022-10-05T06:00:35.587Z,99.9
2022-10-05T06:05:37.981Z,99.9
2022-10-05T06:10:39.995Z,99.9
2022-10-05T06:15:41.882Z,99.9
2022-10-05T06:20:44.233Z,99.9
2022-10-05T06:25:46.175Z,99.9
2022-10-05T06:35:48.421Z,99.9
2022-10-05T06:40:50.379Z,99.9
2022-10-05T06:45:52.577Z,99.9
2022-10-05T06:50:54.491Z,99.9
2022-10-05T06:55:56.358Z,99.9
2022-10-05T07:00:58.815Z,99.9
2022-10-05T07:06:00.713Z,99.9
2022-10-05T07:11:02.707Z,99.9
2022-10-05T07:16:05.428Z,99.9
2022-10-05T07:21:07.402Z,99.9
2022-10-05T07:26:09.336Z,99.9
2022-10-05T07:31:11.797Z,99.9
2022-10-05T07:36:13.941Z,99.9
2022-10-05T07:41:15.902Z,99.9
2022-10-05T07:46:18.060Z,99.9
2022-10-05T07:51:20.056Z,99.9
2022-10-05T07:56:22.011Z,99.9
2022-10-05T08:01:26.357Z,99.9
2022-10-05T08:06:28.440Z,99.9
2022-10-05T08:11:30.460Z,99.9
2022-10-05T08:16:32.568Z,99.9
2022-10-05T08:21:34.591Z,99.9
2022-10-05T08:26:36.600Z,99.9
2022-10-05T08:31:39.133Z,99.9
2022-10-05T08:36:41.245Z,99.9
2022-10-05T08:41:43.304Z,99.9
2022-10-05T08:46:45.309Z,99.9
2022-10-05T08:51:49.060Z,99.9
2022-10-05T08:56:51.228Z,99.9
2022-10-05T09:01:54.049Z,99.9
2022-10-05T09:06:56.081Z,99.9
2022-10-05T09:11:58.057Z,99.9
2022-10-05T09:17:00.710Z,99.9
2022-10-05T09:22:02.632Z,99.9
2022-10-05T09:27:04.552Z,99.9
2022-10-05T09:32:06.542Z,99.9
2022-10-05T09:37:11.643Z,99.9
2022-10-05T09:42:13.745Z,99.9
2022-10-05T09:47:15.666Z,99.9
2022-10-05T09:52:21.455Z,99.9
2022-10-05T09:57:23.574Z,99.9
2022-10-05T10:02:26.296Z,98.1
2022-10-05T10:07:28.335Z,98
2022-10-05T10:12:30.234Z,97.8
2022-10-05T10:17:32.108Z,99
2022-10-05T10:22:34.086Z,99.7
2022-10-05T10:27:36.527Z,99.6
2022-10-05T10:32:38.941Z,99.8
2022-10-05T10:37:43.029Z,98.8
2022-10-05T10:42:44.943Z,97.6
2022-10-05T10:47:46.961Z,98.8
2022-10-05T10:52:48.941Z,98.1
2022-10-05T10:57:50.883Z,98.6
2022-10-05T11:02:53.439Z,98.2
2022-10-05T11:07:55.693Z,96.4
2022-10-05T11:12:57.768Z,97.6
2022-10-05T11:17:59.735Z,97.1
2022-10-05T11:23:02.043Z,97
2022-10-05T11:28:05.490Z,97.6
2022-10-05T11:33:07.433Z,98.4
2022-10-05T11:38:09.317Z,99.2
2022-10-05T11:43:11.254Z,99.9
2022-10-05T11:48:13.486Z,99.9
2022-10-05T11:53:15.410Z,99.9
2022-10-05T11:58:17.313Z,99.9
2022-10-05T12:03:20.092Z,99.7
2022-10-05T12:08:22.051Z,99.7
2022-10-05T12:13:24.157Z,99.4
2022-10-05T12:18:26.097Z,99.4
2022-10-05T12:23:28.058Z,99.9
2022-10-05T12:28:30.093Z,99.9
2022-10-05T12:33:32.043Z,99.9
2022-10-05T12:38:34.022Z,99.9
2022-10-05T12:43:36.066Z,99.9
2022-10-05T12:48:37.997Z,99.9
2022-10-05T12:53:39.891Z,99.9
2022-10-05T12:58:41.744Z,99.9
2022-10-05T13:03:43.781Z,99.9
2022-10-05T13:08:45.721Z,99.9
2022-10-05T13:13:48.132Z,99.9
2022-10-05T13:18:50.156Z,99.9
2022-10-05T13:23:59.122Z,99.9
2022-10-05T13:29:01.286Z,99.9
2022-10-05T13:34:03.146Z,99.9
2022-10-05T13:39:05.037Z,99.9
2022-10-05T13:44:07.002Z,99.9
2022-10-05T13:49:08.909Z,99.9
2022-10-05T13:54:10.809Z,99.9
2022-10-05T13:59:12.699Z,99.9
2022-10-05T14:04:14.741Z,99.9
2022-10-05T14:09:16.622Z,99.9
2022-10-05T14:14:18.509Z,99.9
2022-10-05T14:19:20.586Z,99.9
2022-10-05T14:24:46.415Z,99.9
2022-10-05T14:29:28.537Z,99.9
2022-10-05T14:34:31.919Z,99.9
2022-10-05T14:39:33.778Z,99.9
2022-10-05T14:44:36.159Z,99.9
2022-10-05T14:49:38.361Z,99.9
2022-10-05T14:54:40.237Z,99.9
2022-10-05T14:59:42.348Z,99.9
2022-10-05T15:04:44.496Z,99.9
2022-10-05T15:09:46.340Z,99.9
2022-10-05T15:14:48.490Z,99.9
2022-10-05T15:19:50.445Z,99.9
2022-10-05T15:24:52.397Z,99.9
2022-10-05T15:29:55.271Z,99.9
2022-10-05T15:34:57.163Z,99.9
2022-10-05T15:39:59.668Z,99.9
2022-10-05T15:45:01.766Z,99.9
2022-10-05T15:50:03.908Z,99.9
2022-10-05T15:55:05.824Z,99.9
2022-10-05T16:00:08.344Z,99.9
2022-10-05T16:05:10.277Z,99.9
2022-10-05T16:10:12.127Z,99.9
2022-10-05T16:15:14.042Z,99.9
2022-10-05T16:20:16.527Z,99.9
2022-10-05T16:30:18.870Z,99.9
2022-10-05T16:35:20.723Z,99.9
2022-10-05T16:40:22.691Z,99.9
2022-10-05T16:45:24.691Z,99.9
2022-10-05T16:50:27.073Z,99.9
2022-10-05T16:55:28.964Z,99.9
2022-10-05T17:00:31.027Z,99.9
2022-10-05T17:05:33.516Z,99.9
2022-10-05T17:10:35.547Z,99.9
2022-10-05T17:15:38.135Z,99.9
2022-10-05T17:20:44.924Z,99.9
2022-10-05T17:25:46.885Z,99.9
2022-10-05T17:30:49.430Z,99.9
2022-10-05T17:35:52.449Z,99.9
2022-10-05T17:40:54.403Z,99.9
2022-10-05T17:45:56.795Z,99.9
2022-10-05T17:50:58.791Z,99.9
2022-10-05T17:56:00.896Z,99.9
2022-10-05T18:01:02.959Z,99.9
2022-10-05T18:06:05.131Z,99.9
2022-10-05T18:11:07.306Z,99.9
2022-10-05T18:16:09.709Z,99.9
2022-10-05T18:21:11.954Z,99.9
2022-10-05T18:26:13.850Z,99.9
2022-10-05T18:31:16.069Z,99.9
2022-10-05T18:36:18.128Z,99.9
2022-10-05T18:41:20.784Z,99.9
2022-10-05T18:46:23.267Z,99.9
2022-10-05T18:51:27.355Z,99.9
2022-10-05T18:56:29.623Z,99.9
2022-10-05T19:01:32.407Z,99.9
2022-10-05T19:06:35.503Z,99.9
2022-10-05T19:11:37.750Z,99.9
2022-10-05T19:16:40.056Z,99.9
2022-10-05T19:21:48.904Z,99.9
2022-10-05T19:26:51.249Z,99.9
2022-10-05T19:31:53.413Z,99.9
2022-10-05T19:36:55.379Z,99.9
2022-10-05T19:41:57.581Z,99.9
2022-10-05T19:46:59.840Z,99.9
2022-10-05T19:52:01.956Z,99.9
2022-10-05T19:57:03.994Z,99.9
2022-10-05T20:02:06.512Z,99.9
2022-10-05T20:07:08.576Z,99.9
2022-10-05T20:12:10.570Z,99.9
2022-10-05T20:17:12.639Z,99.9
2022-10-05T20:22:14.787Z,99.9
2022-10-05T20:27:18.977Z,99.9
2022-10-05T20:32:21.003Z,99.9
2022-10-05T20:37:22.974Z,99.9
2022-10-05T20:42:25.071Z,99.9
2022-10-05T20:47:27.045Z,99.9
2022-10-05T20:52:29.036Z,99.9
2022-10-05T20:57:30.982Z,99.9
2022-10-05T21:02:32.925Z,99.9
2022-10-05T21:07:34.948Z,99.9
2022-10-05T21:12:37.013Z,99.9
2022-10-05T21:17:39.418Z,99.9
2022-10-05T21:22:41.273Z,99.9
2022-10-05T21:27:43.278Z,99.9
2022-10-05T21:32:47.840Z,99.9
2022-10-05T21:37:49.741Z,99.9
2022-10-05T21:42:51.657Z,99.9
2022-10-05T21:47:53.610Z,99.9
2022-10-05T21:52:55.511Z,99.9
2022-10-05T21:57:57.443Z,99.9
2022-10-05T22:02:59.406Z,99.9
2022-10-05T22:08:01.300Z,99.9
2022-10-05T22:13:03.333Z,99.9
2022-10-05T22:18:05.717Z,99.9
2022-10-05T22:23:07.969Z,99.9
2022-10-05T22:28:12.729Z,99.9
2022-10-05T22:33:14.759Z,99.9
2022-10-05T22:38:16.728Z,99.9
2022-10-05T22:43:18.602Z,99.9
2022-10-05T22:48:20.525Z,99.9
2022-10-05T22:53:22.403Z,99.9
2022-10-05T22:58:33.778Z,99.9
2022-10-05T23:03:25.743Z,99.9
2022-10-05T23:08:30.263Z,99.9
2022-10-05T23:13:32.593Z,99.9
2022-10-05T23:18:34.983Z,99.9
2022-10-05T23:23:37.074Z,99.9
2022-10-05T23:28:39.674Z,99.9
2022-10-05T23:33:41.680Z,99.9
2022-10-05T23:38:43.567Z,99.9
2022-10-05T23:43:45.508Z,99.9
2022-10-05T23:48:47.434Z,99.9
2022-10-05T23:53:49.505Z,99.9
2022-10-05T23:58:51.441Z,99.9
